Logo AVAMET
Benvolgut visitant, si us plau, ingressa Recuperar contrasenya
AVAMET paisatges
Union Alcoyana

Inforatge Riola

Dades diàries. Acumulats / Últims 30 dies disponibles

Data Temperatura (°C) Humitat rel. (%) Pressió rel. (hPa) Vent (km/h) Precipitació
Mínima Mitjana Màxima Amplitud
tèrmica
Mínima Mitjana Màxima Mínima Mitjana Màxima Predom. Mitjana Ràfega
màxima
Total
(mm)
Índex-n
Mínima Mitjana Màxima Mínima Mitjana Màxima n
0 a 1
P0 max
mm 5'
Dades mensuals acumulades fins l'últim dia disponible
05/2021 12,1 13,9 15,8 17,9 17,3 23,1 28,2 16,1 28 77 95 1.004 1.015 1.023   5,9 37,0 2,0
Dades anuals acumulades fins l'últim dia disponible
2021 0,3 9,7 17,1 13,5 7,1 18,1 28,3 28,0 19 74 97 1.001 1.018 1.037   5,9 86,9 226,0
Últims 30 dies disponibles
10-05-2021 15,2     19,0     24,7 9,5 39 68 93 1.008 1.010 1.012 SO 5,8 32,2 0,0
09-05-2021 15,8     18,4     21,6 5,8 73 87 95 1.004 1.009 1.014 ENE 4,5 35,4 0,0
08-05-2021 15,8     18,8     22,5 6,7 66 82 94 1.013 1.017 1.020 ESE 4,8 29,0 0,0
07-05-2021 13,7     20,9     28,2 14,5 39 70 95 1.015 1.016 1.018 ESE 6,8 37,0 0,0
06-05-2021 12,7     19,2     27,8 15,1 50 79 95 1.012 1.015 1.018 ESE 6,8 32,2 0,0
05-05-2021 12,8     18,2     24,0 11,2 51 77 95 1.014 1.016 1.017 ESE 6,9 27,4 0,0
04-05-2021 12,1     16,3     21,8 9,7 54 80 95 1.014 1.018 1.022 ESE 6,6 33,8 0,2
03-05-2021 13,9     15,3     17,3 3,4 75 83 91 1.020 1.021 1.023 ENE 5,6 30,6 1,6
02-05-2021 12,8     15,4     17,9 5,1 52 78 94 1.016 1.018 1.021 ENE 4,8 25,7 0,2
01-05-2021 14,0     17,9     25,0 11,0 28 69 91 1.008 1.011 1.016 WNW 6,1 32,2 0,0
30-04-2021 13,5     17,5     21,8 8,3 57 75 93 1.007 1.008 1.010 WNW 5,6 25,7 4,4 0,36 0,70
29-04-2021 12,8     18,7     24,1 11,3 47 75 96 1.006 1.008 1.009 W 5,3 30,6 0,2
28-04-2021 13,1     17,1     24,6 11,5 50 85 97 1.005 1.007 1.009 WNW 4,2 30,6 3,8 0,40
27-04-2021 12,5     15,9     19,8 7,3 73 89 96 1.005 1.006 1.008 ESE 4,7 27,4 4,6 0,32 0,40
26-04-2021 13,7     15,1     17,8 4,1 83 92 96 1.005 1.008 1.014 ESE 4,8 29,0 24,4 0,46 3,10
25-04-2021 12,9     15,2     17,6 4,7 79 88 95 1.010 1.014 1.019 ENE 4,8 27,4 2,2 0,30 0,40
24-04-2021 12,3     14,6     15,9 3,6 83 87 92 1.018 1.020 1.022 ENE 4,3 27,4 0,2
23-04-2021 12,8     15,1     18,3 5,5 66 83 95 1.019 1.021 1.022 ENE 4,2 24,1 2,4 0,40
22-04-2021 12,9     14,6     17,6 4,7 77 90 96 1.014 1.016 1.020 ENE 3,4 19,3 11,6 0,31 0,70
21-04-2021 13,9     15,2     17,5 3,6 74 87 94 1.012 1.013 1.016 ENE 3,5 19,3 3,2 0,20
20-04-2021 12,4     15,2     18,3 5,9 59 79 91 1.013 1.014 1.017 ESE 3,9 27,4 1,4 0,20
19-04-2021 7,2     16,3     26,8 19,6 19 65 91 1.013 1.017 1.021 WNW 6,0 32,2 0,0
18-04-2021 7,1     12,1     17,2 10,1 38 66 88 1.019 1.021 1.022 ESE 5,0 30,6 0,0
17-04-2021 6,6     11,4     17,3 10,7 42 69 93 1.017 1.018 1.020 WNW 5,3 29,0 0,2
16-04-2021 7,7     11,9     17,1 9,4 51 79 93 1.016 1.018 1.020 WNW 5,1 30,6 4,0
15-04-2021 11,4     13,6     14,7 3,3 77 83 94 1.017 1.018 1.020 ENE 4,2 25,7 1,0
14-04-2021 10,1     13,8     17,1 7,0 67 81 92 1.018 1.020 1.023 ESE 4,8 29,0 0,0
13-04-2021 12,0     14,4     18,1 6,1 61 79 91 1.022 1.024 1.026 ESE 6,9 27,4 0,0
12-04-2021 11,1     14,0     16,5 5,4 52 77 96 1.020 1.024 1.026 ESE 6,3 35,4 0,2
11-04-2021 10,3     16,6     24,1 13,8 47 77 96 1.012 1.014 1.021 W 4,7 30,6 1,2
Últims 13 mesos disponibles
04/2021 6,6 10,9 13,9 14,6 13,3 19,0 28,3 21,7 64 79 92 1.006 1.016 1.025 ESE 4,7 45,1 80,4
03/2021 4,1 8,8 13,2 13,0 12,4 17,6 25,4 21,3 54 78 94 1.014 1.023 1.031 WNW 4,7 40,2 46,6
02/2021 5,6 10,5 15,9 13,9 14,4 18,0 22,8 17,2 51 74 90 1.003 1.018 1.035 WNW 6,3 57,9 1,8
01/2021 0,3 7,4 17,1 11,2 7,1 16,0 26,2 25,9 38 64 93 1.007 1.017 1.028 WNW 7,8 86,9 95,2
12/2020 3,9 8,5 14,9 12,4 13,0 17,3 22,7 18,8 43 65 88 998 1.015 1.028 WNW 7,4 56,3 9,2
11/2020 6,7 11,8 16,7 15,3 14,9 19,9 24,2 17,5 0 78 94 0 946 1.030 WNW 4,3 53,1 523,2
10/2020 9,1 13,8 18,4 18,7 20,4 24,5 32,7 23,6 0 39 85 0 677 1.022 WNW 5,9 62,8 5,6
09/2020 12,4 18,6 21,8 23,2 24,3 28,3 31,3 18,9 39 68 83 1.011 1.017 1.023 WNW 5,6 43,5 29,2
08/2020 15,3 22,3 25,3 26,2 25,8 31,4 35,6 20,3 51 72 85 1.004 1.014 1.018 WNW 4,1 38,6 3,0
07/2020 19,1 21,9 23,7 26,0 27,4 30,3 33,8 14,7 59 77 86 1.011 1.016 1.020 SSO 4,8 35,4 14,0
06/2020 15,1 18,9 22,6 23,4 21,4 28,4 33,3 18,2 37 71 84 1.005 1.014 1.021 WNW 5,8 38,6 37,6
05/2020 12,9 16,1 18,8 21,0 19,7 26,1 33,9 21,0 51 70 81 1.006 1.015 1.026 SW 4,8 43,5 21,6
04/2020 8,5 12,5 17,8 16,0 15,9 20,3 27,3 18,8 50 79 93 1.006 1.016 1.026 SW 4,2 38,6 62,6
Tots els anys disponibles
2020 3,1 14,2 25,3 18,4 10,4 23,4 35,6 32,5 0 70 94 0 985 1.033 WNW 5,1 74,0 1.038,6
2019 1,8 14,0 25,8 18,6 13,2 23,7 41,7 39,9 0 69 95 0 1.014 1.034 S 5,0 72,4 442,0
2018 1,4 14,2 26,9 18,5 8,5 23,3 37,1 35,7 39 71 94 994 1.017 1.036 SSO 4,6 61,1 718,2
Temperatura (°C)
Humitat relativa (%)
Velocitat del vent i ràfega màxima (km/h)
Direcció del vent (°)
Pressió (hPa)
Precipitació (mm)
Nota sobre les dades: s'avisa a l'usuari de la provisionalitat i no oficialitat d'aquestes dades
Logo AVAMET blanc
Web allotjada a Sollutia
Llicència de Creative CommonsLa web d'AVAMET i els seus continguts estan subjectes a una llicència de
Reconeixement - No Comercial - Compartir igual
Avís legal - Política de privacitat - Política de cookies
NOVES ESTACIONS: Gaibiel (Ajuntament/Soci), Almenara - Comunitat de Regants (Soci), Gandia - Camí de la mar (Soci), Ayódar (Soci),  Busot - Policia Local (Ajuntament/Soci), Vilafranca - la Pobla del Bellestar (Ajuntament/Soci), la Serratella (Ajuntament/Soci),  Xixona - Cantal del Tormo (Soci),  Castelló de la Plana - Edifici Capitol (Soci),  Algimia de Almonacid (Soci) - - -